• Join FlightAware (Why Join?)
  • Login
  • US Flag 
05:45PM EDT


 

Airport Tracker/Info


-or-


 

Live Flight TrackerFlight Track Log ✈ EJA114 ✈ 03-Jul-2013 ✈ KIAD - KFOK

Flight Track Log - Related Links

Times and Time Zones

All times are in EDT time to prevent confusion due to time zone crossing. See the EJA114 flight status page for this flight to view local times or setup timezone preferences in your user account.

Time Position Orientation Groundspeed Altitude Reporting Facility
EDT Latitude Longitude Course Direction KTS MPH feet Rate Location/Type
02:18PM 38.9833 -77.5500 44° Northeast 222 255 3,100  Level Potomac TRACON
02:19PM 39.0500 -77.5833 339° North 249 287 5,000 1,800 Climbing Potomac TRACON
02:20PM 39.1167 -77.5833 360° North 266 306 6,800 1,920 Climbing Potomac TRACON
02:21PM 39.1667 -77.5167 46° Northeast 286 329 8,900 1,080 Climbing Potomac TRACON
02:22PM 39.2000 -77.4167 67° East 311 358 9,000 660 Climbing Potomac TRACON
02:23PM 40.1801 -73.2041 44° Northeast  Level FlightAware Approximate
02:24PM 39.2714 -77.2161 65° Northeast 326 375 11,000  Level Washington Center
02:25PM 39.3081 -77.1206 64° Northeast 326 375 13,200 1,860 Climbing Washington Center
02:26PM 39.3303 -77.0083 76° East 326 375 14,800 1,560 Climbing Washington Center
02:27PM 39.2961 -76.9003 112° Southeast 304 350 16,400 1,560 Climbing Washington Center
02:28PM 39.2639 -76.7897 111° Southeast 314 361 17,900 1,320 Climbing Washington Center
02:29PM 39.2294 -76.6767 111° Southeast 331 381 19,100 1,320 Climbing Washington Center
02:30PM 39.1928 -76.5664 113° Southeast 331 381 20,600 1,500 Climbing Washington Center
02:31PM 39.1603 -76.4561 111° Southeast 331 381 22,100 1,200 Climbing Washington Center
02:32PM 39.1278 -76.3489 111° Southeast 331 381 23,000 420 Climbing Washington Center
02:33PM 39.0908 -76.2361 113° Southeast 331 381 23,000  Level Washington Center
02:34PM 39.0561 -76.1047 109° East 356 410 23,000  Level Washington Center
02:35PM 39.0483 -75.9578 94° East 388 447 23,000  Level Washington Center
02:36PM 39.0550 -75.8000 87° East 410 472 23,000  Level Washington Center
02:37PM 39.0633 -75.6369 86° East 433 498 23,000  Level Washington Center
02:38PM 39.0694 -75.4739 87° East 446 513 23,000  Level Washington Center
02:39PM 39.1172 -75.3214 68° East 451 519 23,000  Level Washington Center
02:40PM 39.1711 -75.1686 65° Northeast 451 519 23,000  Level Washington Center
02:41PM 39.2306 -74.9967 66° East 466 536 23,000  Level Washington Center
02:42PM 39.2839 -74.8433 66° East 466 536 23,000  Level Washington Center
02:43PM 39.3392 -74.6872 65° Northeast 466 536 23,000  Level Washington Center
02:45PM 39.4456 -74.3758 66° East 498 573 23,000 -240 Level New York Center
02:46PM 39.4961 -74.2225 67° East 480 552 22,300 -1,020 Descending New York Center
02:47PM 39.5628 -74.0803 59° Northeast 466 536 21,000 -1,080 Descending New York Center
02:48PM 39.6453 -73.9628 48° Northeast 444 511 20,200 -1,320 Descending New York Center
02:49PM 39.7336 -73.8508 44° Northeast 444 511 18,400 -1,620 Descending New York Center
02:50PM 39.8197 -73.7439 44° Northeast 423 487 17,000 -720 Descending New York Center
02:51PM 39.9017 -73.6364 45° Northeast 418 481 17,000  Level New York Center
02:52PM 39.9878 -73.5289 44° Northeast 418 481 17,000 -480 Level New York Center
02:53PM 40.0736 -73.4211 44° Northeast 424 488 16,100 -1,800 Descending New York Center
02:55PM 40.2619 -73.1797 44° Northeast 396 456 10,800 -2,040 Descending Boston Center
02:56PM 40.3292 -73.0933 44° Northeast 366 421 9,000 -960 Descending Boston Center
02:57PM 40.3900 -73.0122 45° Northeast 329 379 8,900 -1,020 Descending Boston Center
02:58PM 40.4489 -72.9336 45° Northeast 304 350 7,000 -1,020 Descending Boston Center
02:59PM 40.5033 -72.8631 45° Northeast 286 329 6,900 -60 Descending Boston Center
03:00PM 40.5492 -72.8006 46° Northeast 257 296 6,900  Level Boston Center
03:01PM 40.5475 -72.7350 92° East 214 246 6,900  Level Boston Center
03:02PM 40.4994 -72.7758 213° Southwest 69 79 6,900  Level Boston Center
03:03PM 40.4575 -72.8328 226° Southwest 143 165 6,900  Level Boston Center
03:04PM 40.4197 -72.8844 226° Southwest 180 207 6,900  Level Boston Center
03:05PM 40.4008 -72.9469 248° West 192 221 7,000  Climbing Boston Center
03:06PM 40.4572 -72.9228 18° North 92 106 6,900  Descending Boston Center
03:07PM 40.5094 -72.8578 43° Northeast 133 153 7,000  Climbing Boston Center
03:08PM 40.5597 -72.7953 43° Northeast 202 232 7,000 -60 Level Boston Center
03:09PM 40.5661 -72.7242 83° East 200 230 6,900  Descending Boston Center
03:10PM 40.5222 -72.7567 209° Southwest 73 84 7,000 -60 Climbing Boston Center
03:12PM 40.6167 -72.7333 11° North 247 284 6,800 -840 Descending New York TRACON
03:14PM 40.7167 -72.6000 45° Northeast 251 289 3,700 -960 Descending New York TRACON
03:16PM 40.8333 -72.6167 17° North  Level FlightAware Approximate
03:16PM 40.8167 -72.4667 17° North 234 269 3,000  Level New York TRACON